sensor_id;sensor_type;location;lat;lon;timestamp;P1;durP1;ratioP1;P2;durP2;ratioP2
11141;SDS011;5625;50.122;19.864;2022-10-16T00:01:05;11.47;;;10.37;;
11141;SDS011;5625;50.122;19.864;2022-10-16T00:03:34;11.60;;;10.40;;
11141;SDS011;5625;50.122;19.864;2022-10-16T00:06:02;11.27;;;10.13;;
11141;SDS011;5625;50.122;19.864;2022-10-16T00:08:31;11.80;;;10.60;;
11141;SDS011;5625;50.122;19.864;2022-10-16T00:11:00;12.70;;;10.53;;
11141;SDS011;5625;50.122;19.864;2022-10-16T00:13:31;11.40;;;10.30;;
11141;SDS011;5625;50.122;19.864;2022-10-16T00:16:00;10.43;;;9.53;;
11141;SDS011;5625;50.122;19.864;2022-10-16T00:18:29;10.87;;;9.87;;
11141;SDS011;5625;50.122;19.864;2022-10-16T00:21:01;10.80;;;9.10;;
11141;SDS011;5625;50.122;19.864;2022-10-16T00:23:30;9.70;;;8.70;;
11141;SDS011;5625;50.122;19.864;2022-10-16T00:25:59;12.70;;;9.73;;
11141;SDS011;5625;50.122;19.864;2022-10-16T00:28:29;10.53;;;9.53;;
11141;SDS011;5625;50.122;19.864;2022-10-16T00:30:59;10.40;;;9.40;;
11141;SDS011;5625;50.122;19.864;2022-10-16T00:33:30;10.50;;;9.53;;
11141;SDS011;5625;50.122;19.864;2022-10-16T00:35:59;9.97;;;8.93;;
11141;SDS011;5625;50.122;19.864;2022-10-16T00:38:27;10.30;;;9.23;;
11141;SDS011;5625;50.122;19.864;2022-10-16T00:40:56;9.20;;;8.30;;
11141;SDS011;5625;50.122;19.864;2022-10-16T00:43:36;9.60;;;8.70;;
11141;SDS011;5625;50.122;19.864;2022-10-16T00:46:09;10.27;;;9.27;;
11141;SDS011;5625;50.122;19.864;2022-10-16T00:48:43;9.67;;;8.73;;
11141;SDS011;5625;50.122;19.864;2022-10-16T00:51:15;11.53;;;10.03;;
11141;SDS011;5625;50.122;19.864;2022-10-16T00:53:45;11.77;;;10.33;;
11141;SDS011;5625;50.122;19.864;2022-10-16T00:56:14;11.87;;;10.77;;
11141;SDS011;5625;50.122;19.864;2022-10-16T00:58:43;11.63;;;10.43;;
11141;SDS011;5625;50.122;19.864;2022-10-16T01:01:11;12.97;;;11.67;;
11141;SDS011;5625;50.122;19.864;2022-10-16T01:03:40;12.03;;;10.87;;
11141;SDS011;5625;50.122;19.864;2022-10-16T01:09:04;12.63;;;11.33;;
11141;SDS011;5625;50.122;19.864;2022-10-16T01:11:41;12.97;;;11.40;;
11141;SDS011;5625;50.122;19.864;2022-10-16T01:14:23;11.57;;;10.47;;
11141;SDS011;5625;50.122;19.864;2022-10-16T01:17:00;11.93;;;10.57;;
11141;SDS011;5625;50.122;19.864;2022-10-16T01:19:38;11.97;;;10.57;;
11141;SDS011;5625;50.122;19.864;2022-10-16T01:22:15;9.83;;;8.90;;
11141;SDS011;5625;50.122;19.864;2022-10-16T01:24:46;10.97;;;9.37;;
11141;SDS011;5625;50.122;19.864;2022-10-16T01:27:18;10.40;;;9.40;;
11141;SDS011;5625;50.122;19.864;2022-10-16T01:29:51;10.80;;;9.80;;
11141;SDS011;5625;50.122;19.864;2022-10-16T01:32:24;11.07;;;9.70;;
11141;SDS011;5625;50.122;19.864;2022-10-16T01:35:02;10.50;;;9.53;;
11141;SDS011;5625;50.122;19.864;2022-10-16T01:37:35;11.07;;;9.23;;
11141;SDS011;5625;50.122;19.864;2022-10-16T01:40:08;10.87;;;9.73;;
11141;SDS011;5625;50.122;19.864;2022-10-16T01:42:41;11.77;;;9.57;;
11141;SDS011;5625;50.122;19.864;2022-10-16T01:45:13;10.37;;;9.37;;
11141;SDS011;5625;50.122;19.864;2022-10-16T01:47:45;11.20;;;10.10;;
11141;SDS011;5625;50.122;19.864;2022-10-16T01:50:16;12.93;;;10.13;;
11141;SDS011;5625;50.122;19.864;2022-10-16T01:52:47;13.43;;;10.53;;
11141;SDS011;5625;50.122;19.864;2022-10-16T01:55:20;13.33;;;10.53;;
11141;SDS011;5625;50.122;19.864;2022-10-16T01:57:55;11.43;;;10.40;;
11141;SDS011;5625;50.122;19.864;2022-10-16T02:00:27;11.93;;;10.60;;
11141;SDS011;5625;50.122;19.864;2022-10-16T02:02:56;11.17;;;10.17;;
11141;SDS011;5625;50.122;19.864;2022-10-16T02:05:26;10.70;;;9.70;;
11141;SDS011;5625;50.122;19.864;2022-10-16T02:07:58;12.43;;;9.23;;
11141;SDS011;5625;50.122;19.864;2022-10-16T02:10:31;13.03;;;10.73;;
11141;SDS011;5625;50.122;19.864;2022-10-16T02:13:03;11.53;;;10.43;;
11141;SDS011;5625;50.122;19.864;2022-10-16T02:15:35;12.03;;;10.77;;
11141;SDS011;5625;50.122;19.864;2022-10-16T02:18:04;12.67;;;10.87;;
11141;SDS011;5625;50.122;19.864;2022-10-16T02:20:34;12.13;;;11.00;;
11141;SDS011;5625;50.122;19.864;2022-10-16T02:23:05;12.50;;;11.20;;
11141;SDS011;5625;50.122;19.864;2022-10-16T02:25:40;12.03;;;10.83;;
11141;SDS011;5625;50.122;19.864;2022-10-16T02:28:13;13.67;;;12.27;;
11141;SDS011;5625;50.122;19.864;2022-10-16T02:30:46;15.30;;;12.57;;
11141;SDS011;5625;50.122;19.864;2022-10-16T02:33:18;15.73;;;14.20;;
11141;SDS011;5625;50.122;19.864;2022-10-16T02:35:48;17.03;;;15.23;;
11141;SDS011;5625;50.122;19.864;2022-10-16T02:38:18;16.43;;;14.23;;
11141;SDS011;5625;50.122;19.864;2022-10-16T02:40:47;17.03;;;15.23;;
11141;SDS011;5625;50.122;19.864;2022-10-16T02:43:17;16.97;;;15.27;;
11141;SDS011;5625;50.122;19.864;2022-10-16T02:45:45;17.63;;;15.80;;
11141;SDS011;5625;50.122;19.864;2022-10-16T02:48:13;18.67;;;16.77;;
11141;SDS011;5625;50.122;19.864;2022-10-16T02:50:41;17.50;;;15.73;;
11141;SDS011;5625;50.122;19.864;2022-10-16T02:53:09;20.20;;;16.90;;
11141;SDS011;5625;50.122;19.864;2022-10-16T02:55:37;17.37;;;15.57;;
11141;SDS011;5625;50.122;19.864;2022-10-16T02:58:05;17.23;;;15.43;;
11141;SDS011;5625;50.122;19.864;2022-10-16T03:00:35;17.60;;;15.63;;
11141;SDS011;5625;50.122;19.864;2022-10-16T03:03:03;18.67;;;16.77;;
11141;SDS011;5625;50.122;19.864;2022-10-16T03:05:31;19.47;;;16.77;;
11141;SDS011;5625;50.122;19.864;2022-10-16T03:07:59;19.27;;;17.30;;
11141;SDS011;5625;50.122;19.864;2022-10-16T03:10:27;21.03;;;17.00;;
11141;SDS011;5625;50.122;19.864;2022-10-16T03:12:55;18.13;;;16.27;;
11141;SDS011;5625;50.122;19.864;2022-10-16T03:15:23;18.80;;;16.80;;
11141;SDS011;5625;50.122;19.864;2022-10-16T03:17:53;19.73;;;17.63;;
11141;SDS011;5625;50.122;19.864;2022-10-16T03:20:21;19.70;;;17.53;;
11141;SDS011;5625;50.122;19.864;2022-10-16T03:22:49;20.40;;;17.63;;
11141;SDS011;5625;50.122;19.864;2022-10-16T03:25:18;18.90;;;16.90;;
11141;SDS011;5625;50.122;19.864;2022-10-16T03:27:46;21.03;;;17.63;;
11141;SDS011;5625;50.122;19.864;2022-10-16T03:30:14;20.50;;;17.07;;
11141;SDS011;5625;50.122;19.864;2022-10-16T03:32:43;18.60;;;16.70;;
11141;SDS011;5625;50.122;19.864;2022-10-16T03:35:13;17.80;;;15.67;;
11141;SDS011;5625;50.122;19.864;2022-10-16T03:37:41;18.97;;;16.93;;
11141;SDS011;5625;50.122;19.864;2022-10-16T03:40:09;18.37;;;16.10;;
11141;SDS011;5625;50.122;19.864;2022-10-16T03:42:38;17.07;;;15.30;;
11141;SDS011;5625;50.122;19.864;2022-10-16T03:45:06;17.67;;;15.23;;
11141;SDS011;5625;50.122;19.864;2022-10-16T03:47:34;16.97;;;15.20;;
11141;SDS011;5625;50.122;19.864;2022-10-16T03:50:02;15.70;;;14.10;;
11141;SDS011;5625;50.122;19.864;2022-10-16T03:52:33;17.03;;;14.67;;
11141;SDS011;5625;50.122;19.864;2022-10-16T03:55:01;15.73;;;14.13;;
11141;SDS011;5625;50.122;19.864;2022-10-16T03:57:29;16.67;;;13.73;;
11141;SDS011;5625;50.122;19.864;2022-10-16T03:59:57;16.63;;;14.83;;
11141;SDS011;5625;50.122;19.864;2022-10-16T04:02:25;18.83;;;15.77;;
11141;SDS011;5625;50.122;19.864;2022-10-16T04:04:53;17.80;;;15.97;;
11141;SDS011;5625;50.122;19.864;2022-10-16T04:07:21;17.60;;;15.43;;
11141;SDS011;5625;50.122;19.864;2022-10-16T04:09:51;16.97;;;15.27;;
11141;SDS011;5625;50.122;19.864;2022-10-16T04:12:19;16.57;;;14.80;;
11141;SDS011;5625;50.122;19.864;2022-10-16T04:14:48;18.97;;;14.90;;
11141;SDS011;5625;50.122;19.864;2022-10-16T04:17:16;18.53;;;16.50;;
11141;SDS011;5625;50.122;19.864;2022-10-16T04:19:44;17.80;;;15.90;;
11141;SDS011;5625;50.122;19.864;2022-10-16T04:22:12;17.10;;;15.33;;
11141;SDS011;5625;50.122;19.864;2022-10-16T04:24:40;20.70;;;18.13;;
11141;SDS011;5625;50.122;19.864;2022-10-16T04:27:09;21.80;;;18.03;;
11141;SDS011;5625;50.122;19.864;2022-10-16T04:29:37;19.93;;;16.17;;
11141;SDS011;5625;50.122;19.864;2022-10-16T04:32:07;20.40;;;16.40;;
11141;SDS011;5625;50.122;19.864;2022-10-16T04:34:36;19.97;;;16.30;;
11141;SDS011;5625;50.122;19.864;2022-10-16T04:37:06;18.93;;;16.07;;
11141;SDS011;5625;50.122;19.864;2022-10-16T04:39:34;19.60;;;16.20;;
11141;SDS011;5625;50.122;19.864;2022-10-16T04:42:02;18.47;;;16.40;;
11141;SDS011;5625;50.122;19.864;2022-10-16T04:44:31;19.43;;;16.17;;
11141;SDS011;5625;50.122;19.864;2022-10-16T04:46:59;18.10;;;16.20;;
11141;SDS011;5625;50.122;19.864;2022-10-16T04:49:28;18.00;;;15.80;;
11141;SDS011;5625;50.122;19.864;2022-10-16T04:51:56;18.47;;;15.93;;
11141;SDS011;5625;50.122;19.864;2022-10-16T04:54:24;19.73;;;17.67;;
11141;SDS011;5625;50.122;19.864;2022-10-16T04:56:52;17.87;;;16.03;;
11141;SDS011;5625;50.122;19.864;2022-10-16T04:59:21;17.90;;;15.47;;
11141;SDS011;5625;50.122;19.864;2022-10-16T05:01:53;16.67;;;14.90;;
11141;SDS011;5625;50.122;19.864;2022-10-16T05:04:21;17.90;;;16.00;;
11141;SDS011;5625;50.122;19.864;2022-10-16T05:06:50;18.57;;;16.17;;
11141;SDS011;5625;50.122;19.864;2022-10-16T05:09:18;17.27;;;15.47;;
11141;SDS011;5625;50.122;19.864;2022-10-16T05:11:46;16.70;;;14.90;;
11141;SDS011;5625;50.122;19.864;2022-10-16T05:14:14;18.03;;;16.13;;
11141;SDS011;5625;50.122;19.864;2022-10-16T05:16:42;18.70;;;16.90;;
11141;SDS011;5625;50.122;19.864;2022-10-16T05:19:14;19.17;;;17.07;;
11141;SDS011;5625;50.122;19.864;2022-10-16T05:21:57;21.90;;;17.00;;
11141;SDS011;5625;50.122;19.864;2022-10-16T05:24:25;18.27;;;16.37;;
11141;SDS011;5625;50.122;19.864;2022-10-16T05:26:54;18.67;;;16.77;;
11141;SDS011;5625;50.122;19.864;2022-10-16T05:29:22;21.03;;;16.13;;
11141;SDS011;5625;50.122;19.864;2022-10-16T05:31:50;17.10;;;15.30;;
11141;SDS011;5625;50.122;19.864;2022-10-16T05:34:20;17.33;;;14.97;;
11141;SDS011;5625;50.122;19.864;2022-10-16T05:36:49;18.97;;;16.70;;
11141;SDS011;5625;50.122;19.864;2022-10-16T05:39:17;19.50;;;16.30;;
11141;SDS011;5625;50.122;19.864;2022-10-16T05:41:45;19.43;;;17.23;;
11141;SDS011;5625;50.122;19.864;2022-10-16T05:44:13;18.17;;;16.30;;
11141;SDS011;5625;50.122;19.864;2022-10-16T05:46:41;18.70;;;16.30;;
11141;SDS011;5625;50.122;19.864;2022-10-16T05:49:09;17.60;;;15.63;;
11141;SDS011;5625;50.122;19.864;2022-10-16T05:51:38;17.77;;;15.90;;
11141;SDS011;5625;50.122;19.864;2022-10-16T05:54:07;19.50;;;15.80;;
11141;SDS011;5625;50.122;19.864;2022-10-16T05:56:36;17.90;;;16.00;;
11141;SDS011;5625;50.122;19.864;2022-10-16T05:59:04;19.40;;;16.47;;
11141;SDS011;5625;50.122;19.864;2022-10-16T06:01:32;17.70;;;15.83;;
11141;SDS011;5625;50.122;19.864;2022-10-16T06:04:01;18.47;;;14.93;;
11141;SDS011;5625;50.122;19.864;2022-10-16T06:06:30;19.20;;;15.23;;
11141;SDS011;5625;50.122;19.864;2022-10-16T06:08:59;17.80;;;15.20;;
11141;SDS011;5625;50.122;19.864;2022-10-16T06:11:28;17.83;;;15.93;;
11141;SDS011;5625;50.122;19.864;2022-10-16T06:13:58;17.43;;;15.33;;
11141;SDS011;5625;50.122;19.864;2022-10-16T06:16:28;16.10;;;14.07;;
11141;SDS011;5625;50.122;19.864;2022-10-16T06:18:56;16.23;;;14.57;;
11141;SDS011;5625;50.122;19.864;2022-10-16T06:21:25;14.73;;;13.20;;
11141;SDS011;5625;50.122;19.864;2022-10-16T06:23:55;15.80;;;14.17;;
11141;SDS011;5625;50.122;19.864;2022-10-16T06:26:26;15.37;;;13.77;;
11141;SDS011;5625;50.122;19.864;2022-10-16T06:28:56;15.57;;;13.97;;
11141;SDS011;5625;50.122;19.864;2022-10-16T06:31:26;16.23;;;14.50;;
11141;SDS011;5625;50.122;19.864;2022-10-16T06:33:57;18.87;;;15.73;;
11141;SDS011;5625;50.122;19.864;2022-10-16T06:36:26;15.43;;;13.83;;
11141;SDS011;5625;50.122;19.864;2022-10-16T06:38:55;15.20;;;13.63;;
11141;SDS011;5625;50.122;19.864;2022-10-16T06:41:25;15.37;;;13.50;;
11141;SDS011;5625;50.122;19.864;2022-10-16T06:43:53;13.70;;;12.30;;
11141;SDS011;5625;50.122;19.864;2022-10-16T06:46:21;14.30;;;12.80;;
11141;SDS011;5625;50.122;19.864;2022-10-16T06:48:50;14.07;;;12.10;;
11141;SDS011;5625;50.122;19.864;2022-10-16T06:51:18;14.03;;;11.67;;
11141;SDS011;5625;50.122;19.864;2022-10-16T06:53:48;13.93;;;12.53;;
11141;SDS011;5625;50.122;19.864;2022-10-16T06:56:34;13.47;;;11.90;;
11141;SDS011;5625;50.122;19.864;2022-10-16T06:59:02;13.47;;;11.90;;
11141;SDS011;5625;50.122;19.864;2022-10-16T07:01:37;12.97;;;11.63;;
11141;SDS011;5625;50.122;19.864;2022-10-16T07:04:05;15.17;;;12.30;;
11141;SDS011;5625;50.122;19.864;2022-10-16T07:06:33;12.50;;;10.83;;
11141;SDS011;5625;50.122;19.864;2022-10-16T07:09:03;13.17;;;11.83;;
11141;SDS011;5625;50.122;19.864;2022-10-16T07:11:33;13.87;;;12.33;;
11141;SDS011;5625;50.122;19.864;2022-10-16T07:14:04;13.03;;;11.67;;
11141;SDS011;5625;50.122;19.864;2022-10-16T07:16:32;14.80;;;12.53;;
11141;SDS011;5625;50.122;19.864;2022-10-16T07:19:01;14.93;;;11.37;;
11141;SDS011;5625;50.122;19.864;2022-10-16T07:21:30;12.07;;;10.90;;
11141;SDS011;5625;50.122;19.864;2022-10-16T07:24:02;12.93;;;10.83;;
11141;SDS011;5625;50.122;19.864;2022-10-16T07:26:32;11.70;;;10.20;;
11141;SDS011;5625;50.122;19.864;2022-10-16T07:29:05;10.63;;;9.53;;
11141;SDS011;5625;50.122;19.864;2022-10-16T07:31:34;11.40;;;9.50;;
11141;SDS011;5625;50.122;19.864;2022-10-16T07:34:05;11.60;;;9.40;;
11141;SDS011;5625;50.122;19.864;2022-10-16T07:36:33;9.47;;;8.57;;
11141;SDS011;5625;50.122;19.864;2022-10-16T07:39:04;9.07;;;8.17;;
11141;SDS011;5625;50.122;19.864;2022-10-16T07:41:32;8.80;;;8.00;;
11141;SDS011;5625;50.122;19.864;2022-10-16T07:44:03;9.13;;;8.13;;
11141;SDS011;5625;50.122;19.864;2022-10-16T07:46:32;8.87;;;8.07;;
11141;SDS011;5625;50.122;19.864;2022-10-16T07:49:02;9.30;;;8.37;;
11141;SDS011;5625;50.122;19.864;2022-10-16T07:51:30;8.33;;;7.50;;
11141;SDS011;5625;50.122;19.864;2022-10-16T07:53:58;7.70;;;6.80;;
11141;SDS011;5625;50.122;19.864;2022-10-16T07:56:26;7.87;;;7.07;;
11141;SDS011;5625;50.122;19.864;2022-10-16T07:58:56;8.83;;;6.63;;
11141;SDS011;5625;50.122;19.864;2022-10-16T08:01:24;6.73;;;6.10;;
11141;SDS011;5625;50.122;19.864;2022-10-16T08:03:52;7.47;;;6.10;;
11141;SDS011;5625;50.122;19.864;2022-10-16T08:06:21;7.20;;;6.50;;
11141;SDS011;5625;50.122;19.864;2022-10-16T08:08:53;6.37;;;5.77;;
11141;SDS011;5625;50.122;19.864;2022-10-16T08:11:21;6.57;;;5.90;;
11141;SDS011;5625;50.122;19.864;2022-10-16T08:13:50;6.53;;;6.03;;
11141;SDS011;5625;50.122;19.864;2022-10-16T08:16:19;7.23;;;6.00;;
11141;SDS011;5625;50.122;19.864;2022-10-16T08:18:48;6.83;;;6.13;;
11141;SDS011;5625;50.122;19.864;2022-10-16T08:21:18;6.53;;;5.90;;
11141;SDS011;5625;50.122;19.864;2022-10-16T08:23:47;6.47;;;5.87;;
11141;SDS011;5625;50.122;19.864;2022-10-16T08:26:22;8.00;;;5.87;;
11141;SDS011;5625;50.122;19.864;2022-10-16T08:28:50;8.80;;;6.43;;
11141;SDS011;5625;50.122;19.864;2022-10-16T08:31:20;7.13;;;6.43;;
11141;SDS011;5625;50.122;19.864;2022-10-16T08:33:48;7.00;;;6.27;;
11141;SDS011;5625;50.122;19.864;2022-10-16T08:36:17;6.70;;;6.10;;
11141;SDS011;5625;50.122;19.864;2022-10-16T08:38:47;6.93;;;5.93;;
11141;SDS011;5625;50.122;19.864;2022-10-16T08:44:29;6.70;;;6.10;;
11141;SDS011;5625;50.122;19.864;2022-10-16T08:47:08;6.47;;;5.63;;
11141;SDS011;5625;50.122;19.864;2022-10-16T08:49:50;6.87;;;5.80;;
11141;SDS011;5625;50.122;19.864;2022-10-16T08:52:25;6.57;;;5.90;;
11141;SDS011;5625;50.122;19.864;2022-10-16T08:54:57;6.43;;;5.77;;
11141;SDS011;5625;50.122;19.864;2022-10-16T08:57:25;7.38;;;6.47;;
11141;SDS011;5625;50.122;19.864;2022-10-16T08:59:54;6.80;;;5.80;;
11141;SDS011;5625;50.122;19.864;2022-10-16T09:02:29;6.00;;;5.50;;
11141;SDS011;5625;50.122;19.864;2022-10-16T09:07:48;6.10;;;5.50;;
11141;SDS011;5625;50.122;19.864;2022-10-16T09:10:32;6.37;;;5.30;;
11141;SDS011;5625;50.122;19.864;2022-10-16T09:13:14;8.17;;;5.77;;
11141;SDS011;5625;50.122;19.864;2022-10-16T09:15:52;7.63;;;5.50;;
11141;SDS011;5625;50.122;19.864;2022-10-16T09:18:29;5.47;;;4.70;;
11141;SDS011;5625;50.122;19.864;2022-10-16T09:21:05;5.10;;;4.60;;
11141;SDS011;5625;50.122;19.864;2022-10-16T09:23:40;5.33;;;4.73;;
11141;SDS011;5625;50.122;19.864;2022-10-16T09:26:09;6.47;;;5.27;;
11141;SDS011;5625;50.122;19.864;2022-10-16T09:28:40;5.60;;;5.07;;
11141;SDS011;5625;50.122;19.864;2022-10-16T09:31:12;7.00;;;5.70;;
11141;SDS011;5625;50.122;19.864;2022-10-16T09:33:46;6.10;;;5.50;;
11141;SDS011;5625;50.122;19.864;2022-10-16T09:36:17;6.37;;;5.70;;
11141;SDS011;5625;50.122;19.864;2022-10-16T09:38:47;6.93;;;5.40;;
11141;SDS011;5625;50.122;19.864;2022-10-16T09:41:17;6.00;;;5.40;;
11141;SDS011;5625;50.122;19.864;2022-10-16T09:43:47;5.60;;;5.20;;
11141;SDS011;5625;50.122;19.864;2022-10-16T09:46:25;6.70;;;6.00;;
11141;SDS011;5625;50.122;19.864;2022-10-16T09:48:57;6.67;;;5.17;;
11141;SDS011;5625;50.122;19.864;2022-10-16T09:51:27;6.70;;;5.80;;
11141;SDS011;5625;50.122;19.864;2022-10-16T09:53:59;6.13;;;5.10;;
11141;SDS011;5625;50.122;19.864;2022-10-16T09:56:29;5.80;;;5.30;;
11141;SDS011;5625;50.122;19.864;2022-10-16T09:59:00;6.20;;;5.57;;
11141;SDS011;5625;50.122;19.864;2022-10-16T10:01:30;6.70;;;5.03;;
11141;SDS011;5625;50.122;19.864;2022-10-16T10:04:08;5.70;;;5.20;;
11141;SDS011;5625;50.122;19.864;2022-10-16T10:06:41;6.10;;;5.53;;
11141;SDS011;5625;50.122;19.864;2022-10-16T10:09:16;6.03;;;5.40;;
11141;SDS011;5625;50.122;19.864;2022-10-16T10:11:51;7.03;;;5.30;;
11141;SDS011;5625;50.122;19.864;2022-10-16T10:14:22;6.47;;;5.20;;
11141;SDS011;5625;50.122;19.864;2022-10-16T10:17:01;6.37;;;5.30;;
11141;SDS011;5625;50.122;19.864;2022-10-16T10:22:28;6.73;;;5.17;;
11141;SDS011;5625;50.122;19.864;2022-10-16T10:25:10;6.43;;;5.63;;
11141;SDS011;5625;50.122;19.864;2022-10-16T10:27:47;7.97;;;5.50;;
11141;SDS011;5625;50.122;19.864;2022-10-16T10:30:36;5.73;;;5.13;;
11141;SDS011;5625;50.122;19.864;2022-10-16T10:33:12;6.07;;;5.50;;
11141;SDS011;5625;50.122;19.864;2022-10-16T10:35:52;5.57;;;5.17;;
11141;SDS011;5625;50.122;19.864;2022-10-16T10:38:28;6.70;;;4.87;;
11141;SDS011;5625;50.122;19.864;2022-10-16T10:41:17;5.87;;;4.97;;
11141;SDS011;5625;50.122;19.864;2022-10-16T10:43:59;5.67;;;5.20;;
11141;SDS011;5625;50.122;19.864;2022-10-16T10:46:36;5.80;;;5.20;;
11141;SDS011;5625;50.122;19.864;2022-10-16T10:49:16;5.83;;;5.30;;
11141;SDS011;5625;50.122;19.864;2022-10-16T10:51:58;5.57;;;5.07;;
11141;SDS011;5625;50.122;19.864;2022-10-16T10:54:35;5.03;;;4.63;;
11141;SDS011;5625;50.122;19.864;2022-10-16T10:57:10;5.53;;;5.00;;
11141;SDS011;5625;50.122;19.864;2022-10-16T11:00:02;5.60;;;5.00;;
11141;SDS011;5625;50.122;19.864;2022-10-16T11:02:47;5.73;;;4.90;;
11141;SDS011;5625;50.122;19.864;2022-10-16T11:05:25;5.97;;;4.83;;
11141;SDS011;5625;50.122;19.864;2022-10-16T11:08:06;6.17;;;5.57;;
11141;SDS011;5625;50.122;19.864;2022-10-16T11:10:42;5.60;;;5.00;;
11141;SDS011;5625;50.122;19.864;2022-10-16T11:13:19;5.30;;;4.83;;
11141;SDS011;5625;50.122;19.864;2022-10-16T11:15:58;6.93;;;5.10;;
11141;SDS011;5625;50.122;19.864;2022-10-16T11:18:31;5.67;;;5.13;;
11141;SDS011;5625;50.122;19.864;2022-10-16T11:21:13;5.50;;;4.90;;
11141;SDS011;5625;50.122;19.864;2022-10-16T11:23:46;5.90;;;5.30;;
11141;SDS011;5625;50.122;19.864;2022-10-16T11:26:21;6.10;;;5.30;;
11141;SDS011;5625;50.122;19.864;2022-10-16T11:28:54;6.77;;;5.27;;
11141;SDS011;5625;50.122;19.864;2022-10-16T11:31:27;7.87;;;5.20;;
11141;SDS011;5625;50.122;19.864;2022-10-16T11:34:03;5.57;;;5.00;;
11141;SDS011;5625;50.122;19.864;2022-10-16T11:36:42;6.47;;;5.87;;
11141;SDS011;5625;50.122;19.864;2022-10-16T11:39:19;5.97;;;5.40;;
11141;SDS011;5625;50.122;19.864;2022-10-16T11:41:48;6.30;;;5.43;;
11141;SDS011;5625;50.122;19.864;2022-10-16T11:50:22;6.10;;;5.50;;
11141;SDS011;5625;50.122;19.864;2022-10-16T11:52:54;6.70;;;5.43;;
11141;SDS011;5625;50.122;19.864;2022-10-16T11:55:31;5.90;;;5.30;;
11141;SDS011;5625;50.122;19.864;2022-10-16T11:58:09;5.90;;;5.33;;
11141;SDS011;5625;50.122;19.864;2022-10-16T12:00:47;5.60;;;5.00;;
11141;SDS011;5625;50.122;19.864;2022-10-16T12:03:22;6.67;;;5.17;;
11141;SDS011;5625;50.122;19.864;2022-10-16T12:06:02;5.97;;;5.37;;
11141;SDS011;5625;50.122;19.864;2022-10-16T12:08:49;6.37;;;5.00;;
11141;SDS011;5625;50.122;19.864;2022-10-16T12:11:33;5.60;;;5.10;;
11141;SDS011;5625;50.122;19.864;2022-10-16T12:14:05;5.77;;;5.27;;
11141;SDS011;5625;50.122;19.864;2022-10-16T12:16:50;7.77;;;5.23;;
11141;SDS011;5625;50.122;19.864;2022-10-16T12:19:21;7.33;;;5.73;;
11141;SDS011;5625;50.122;19.864;2022-10-16T12:21:50;6.63;;;4.83;;
11141;SDS011;5625;50.122;19.864;2022-10-16T12:24:28;6.50;;;5.20;;
11141;SDS011;5625;50.122;19.864;2022-10-16T12:27:01;5.67;;;5.17;;
11141;SDS011;5625;50.122;19.864;2022-10-16T12:29:33;5.97;;;4.90;;
11141;SDS011;5625;50.122;19.864;2022-10-16T12:32:04;4.37;;;3.97;;
11141;SDS011;5625;50.122;19.864;2022-10-16T12:35:05;5.07;;;4.40;;
11141;SDS011;5625;50.122;19.864;2022-10-16T12:37:44;4.40;;;3.97;;
11141;SDS011;5625;50.122;19.864;2022-10-16T12:40:13;5.50;;;4.13;;
11141;SDS011;5625;50.122;19.864;2022-10-16T12:42:44;4.30;;;4.00;;
11141;SDS011;5625;50.122;19.864;2022-10-16T12:45:21;4.30;;;3.60;;
11141;SDS011;5625;50.122;19.864;2022-10-16T12:47:53;4.77;;;4.37;;
11141;SDS011;5625;50.122;19.864;2022-10-16T12:50:26;6.23;;;4.00;;
11141;SDS011;5625;50.122;19.864;2022-10-16T12:53:00;4.60;;;4.20;;
11141;SDS011;5625;50.122;19.864;2022-10-16T12:55:32;4.60;;;4.10;;
11141;SDS011;5625;50.122;19.864;2022-10-16T12:58:16;4.90;;;4.50;;
11141;SDS011;5625;50.122;19.864;2022-10-16T13:00:54;4.50;;;4.13;;
11141;SDS011;5625;50.122;19.864;2022-10-16T13:03:32;5.10;;;4.53;;
11141;SDS011;5625;50.122;19.864;2022-10-16T13:06:14;5.67;;;4.17;;
11141;SDS011;5625;50.122;19.864;2022-10-16T13:08:56;4.70;;;3.93;;
11141;SDS011;5625;50.122;19.864;2022-10-16T13:11:42;4.70;;;4.30;;
11141;SDS011;5625;50.122;19.864;2022-10-16T13:14:32;5.10;;;4.57;;
11141;SDS011;5625;50.122;19.864;2022-10-16T13:17:25;4.50;;;4.20;;
11141;SDS011;5625;50.122;19.864;2022-10-16T13:20:00;4.57;;;4.17;;
11141;SDS011;5625;50.122;19.864;2022-10-16T13:22:35;4.60;;;4.20;;
11141;SDS011;5625;50.122;19.864;2022-10-16T13:25:15;6.00;;;4.33;;
11141;SDS011;5625;50.122;19.864;2022-10-16T13:27:51;4.00;;;3.70;;
11141;SDS011;5625;50.122;19.864;2022-10-16T13:30:33;4.70;;;4.30;;
11141;SDS011;5625;50.122;19.864;2022-10-16T13:33:06;4.57;;;4.13;;
11141;SDS011;5625;50.122;19.864;2022-10-16T13:35:46;5.57;;;4.50;;
11141;SDS011;5625;50.122;19.864;2022-10-16T13:38:17;4.70;;;4.30;;
11141;SDS011;5625;50.122;19.864;2022-10-16T13:40:48;4.97;;;4.57;;
11141;SDS011;5625;50.122;19.864;2022-10-16T13:43:17;5.03;;;4.53;;
11141;SDS011;5625;50.122;19.864;2022-10-16T13:45:55;4.73;;;4.33;;
11141;SDS011;5625;50.122;19.864;2022-10-16T13:48:24;4.80;;;4.30;;
11141;SDS011;5625;50.122;19.864;2022-10-16T13:51:00;4.57;;;4.17;;
11141;SDS011;5625;50.122;19.864;2022-10-16T13:53:30;5.07;;;4.57;;
11141;SDS011;5625;50.122;19.864;2022-10-16T13:55:59;4.83;;;4.33;;
11141;SDS011;5625;50.122;19.864;2022-10-16T13:58:28;6.47;;;4.83;;
11141;SDS011;5625;50.122;19.864;2022-10-16T14:00:58;5.47;;;4.50;;
11141;SDS011;5625;50.122;19.864;2022-10-16T14:03:28;7.20;;;4.40;;
11141;SDS011;5625;50.122;19.864;2022-10-16T14:05:58;6.57;;;4.30;;
11141;SDS011;5625;50.122;19.864;2022-10-16T14:08:28;5.37;;;4.17;;
11141;SDS011;5625;50.122;19.864;2022-10-16T14:10:58;5.10;;;4.60;;
11141;SDS011;5625;50.122;19.864;2022-10-16T14:13:31;5.87;;;4.87;;
11141;SDS011;5625;50.122;19.864;2022-10-16T14:16:06;5.67;;;4.07;;
11141;SDS011;5625;50.122;19.864;2022-10-16T14:18:37;5.27;;;4.77;;
11141;SDS011;5625;50.122;19.864;2022-10-16T14:21:07;6.07;;;5.47;;
11141;SDS011;5625;50.122;19.864;2022-10-16T14:23:41;6.10;;;5.50;;
11141;SDS011;5625;50.122;19.864;2022-10-16T14:26:17;8.57;;;6.20;;
11141;SDS011;5625;50.122;19.864;2022-10-16T14:28:47;6.00;;;5.43;;
11141;SDS011;5625;50.122;19.864;2022-10-16T14:31:29;5.53;;;4.20;;
11141;SDS011;5625;50.122;19.864;2022-10-16T14:33:59;5.80;;;4.63;;
11141;SDS011;5625;50.122;19.864;2022-10-16T14:36:27;4.60;;;4.20;;
11141;SDS011;5625;50.122;19.864;2022-10-16T14:39:00;5.53;;;4.60;;
11141;SDS011;5625;50.122;19.864;2022-10-16T14:41:30;11.23;;;4.67;;
11141;SDS011;5625;50.122;19.864;2022-10-16T14:44:01;5.07;;;4.57;;
11141;SDS011;5625;50.122;19.864;2022-10-16T14:46:33;5.87;;;4.50;;
11141;SDS011;5625;50.122;19.864;2022-10-16T14:49:04;5.47;;;4.93;;
11141;SDS011;5625;50.122;19.864;2022-10-16T14:51:43;4.63;;;4.23;;
11141;SDS011;5625;50.122;19.864;2022-10-16T14:54:12;5.57;;;4.73;;
11141;SDS011;5625;50.122;19.864;2022-10-16T14:56:43;5.00;;;4.60;;
11141;SDS011;5625;50.122;19.864;2022-10-16T14:59:16;5.47;;;4.87;;
11141;SDS011;5625;50.122;19.864;2022-10-16T15:01:49;7.30;;;5.37;;
11141;SDS011;5625;50.122;19.864;2022-10-16T15:04:17;6.57;;;5.73;;
11141;SDS011;5625;50.122;19.864;2022-10-16T15:06:45;6.17;;;5.47;;
11141;SDS011;5625;50.122;19.864;2022-10-16T15:09:13;6.00;;;5.23;;
11141;SDS011;5625;50.122;19.864;2022-10-16T15:11:44;5.33;;;4.83;;
11141;SDS011;5625;50.122;19.864;2022-10-16T15:14:13;5.90;;;5.00;;
11141;SDS011;5625;50.122;19.864;2022-10-16T15:16:44;5.47;;;4.93;;
11141;SDS011;5625;50.122;19.864;2022-10-16T15:19:13;7.70;;;5.60;;
11141;SDS011;5625;50.122;19.864;2022-10-16T15:21:42;6.03;;;5.43;;